Princewick, West Virginia
Current Conditions -  °F | °C
As of 12:22 PM on Monday 22 Dec 2014 (Local Time) from KBKW Reporting Station
Overcast Overcast  
Wind Chill: 31°   Ceiling: 1300
Heat Index: 38°   Visibility: 10mi
Dew Point: 31°   Wind: 10mph
Humidity: 76%   Direction: 120°ESE
Pressure: 30.01"   Gusts: NA
Location:  37.66°N, 81.22°W
Report Text: KBKW 221722Z AUTO 12009KT 10SM BKN013 OVC029 03/M01 A3001 RMK AO2 T00331006
Loading
Personal Weather Stations






























Interactive Weather Map New forecast layout! Learn more

10-Day Weather Forecast

Advertisements
Track Severe Weather on mobile